Time;durP1;ratioP1;P1;durP2;ratioP2;P2;SDS_P1;SDS_P2;PMS_P1;PMS_P2;Temp;Humidity;BMP_temperature;BMP_pressure;BME280_temperature;BME280_humidity;BME280_pressure;Samples;Min_cycle;Max_cycle;Signal;HPM_P1;HPM_P2
2021/11/27 00:00:44;;;;;;;42.10;24.57;;;;;;;2.09;94.41;95682.18;1785859;80;21102;-56
2021/11/27 00:03:11;;;;;;;48.23;24.50;;;;;;;2.14;94.35;95684.81;1785871;80;21545;-56
2021/11/27 00:05:38;;;;;;;47.15;23.32;;;;;;;2.19;94.29;95688.75;1754234;80;21001;-56
2021/11/27 00:08:06;;;;;;;44.08;25.43;;;;;;;2.22;94.30;95692.22;1754093;80;21142;-56
2021/11/27 00:10:33;;;;;;;47.25;30.20;;;;;;;2.25;94.15;95698.33;1753765;81;21005;-55
2021/11/27 00:12:59;;;;;;;47.67;25.02;;;;;;;2.24;94.11;95699.95;1753829;80;21565;-55
2021/11/27 00:15:26;;;;;;;50.67;27.93;;;;;;;2.16;93.71;95697.89;1771469;80;21543;-56
2021/11/27 00:17:52;;;;;;;61.33;39.18;;;;;;;2.14;93.54;95691.49;1754017;80;21044;-56
2021/11/27 00:20:22;;;;;;;43.17;24.07;;;;;;;2.08;93.44;95695.28;1753771;81;21080;-56
2021/11/27 00:22:48;;;;;;;45.05;23.90;;;;;;;2.04;93.81;95700.13;1754035;80;21506;-56
2021/11/27 00:25:14;;;;;;;40.58;21.20;;;;;;;2.09;93.73;95706.77;1753877;81;20972;-56
2021/11/27 00:27:41;;;;;;;43.35;21.70;;;;;;;2.13;93.82;95710.45;1753761;80;22267;-56
2021/11/27 00:30:09;;;;;;;37.63;20.92;;;;;;;2.16;93.70;95717.92;1753696;80;20985;-56
2021/11/27 00:32:35;;;;;;;37.67;20.75;;;;;;;2.18;93.65;95723.78;1754016;80;21652;-56
2021/11/27 00:35:02;;;;;;;66.65;33.20;;;;;;;2.14;93.31;95727.56;1753782;80;20897;-56
2021/11/27 00:37:28;;;;;;;46.30;26.37;;;;;;;2.09;93.48;95732.94;1734431;81;20996;-56
2021/11/27 00:39:54;;;;;;;58.35;33.05;;;;;;;2.07;93.23;95743.66;1767877;80;21801;-56
2021/11/27 00:42:20;;;;;;;58.02;30.45;;;;;;;2.04;93.40;95748.20;1785902;80;20826;-56
2021/11/27 00:44:46;;;;;;;58.58;31.55;;;;;;;2.06;93.50;95759.44;1765445;80;20897;-56
2021/11/27 00:47:12;;;;;;;54.03;30.43;;;;;;;2.07;93.08;95768.50;1754103;80;20853;-56
2021/11/27 00:49:38;;;;;;;53.33;29.18;;;;;;;2.02;93.18;95770.41;1753947;80;21609;-56
2021/11/27 00:52:05;;;;;;;48.60;24.67;;;;;;;2.02;93.36;95771.20;1764995;80;22164;-55
2021/11/27 00:54:31;;;;;;;42.27;22.35;;;;;;;2.05;93.13;95773.84;1786006;79;21038;-56
2021/11/27 00:56:57;;;;;;;32.48;17.85;;;;;;;2.05;92.94;95772.51;1754468;80;20842;-56
2021/11/27 00:59:23;;;;;;;22.90;12.50;;;;;;;2.02;92.85;95766.40;1753783;80;21173;-56
2021/11/27 01:01:49;;;;;;;19.10;8.48;;;;;;;2.01;92.60;95770.95;1753945;81;21054;-56
2021/11/27 01:04:15;;;;;;;16.10;8.40;;;;;;;1.97;91.95;95768.05;1753671;80;23363;-56
2021/11/27 01:06:41;;;;;;;19.05;9.45;;;;;;;1.95;92.17;95769.38;1753885;81;20933;-56
2021/11/27 01:09:11;;;;;;;17.15;11.03;;;;;;;1.94;91.93;95764.58;1753727;80;21502;-55
2021/11/27 01:11:41;;;;;;;22.07;10.68;;;;;;;1.93;91.56;95767.00;1754152;81;20990;-56
2021/11/27 01:14:10;;;;;;;20.68;10.10;;;;;;;;;;1753755;80;21091;-56
2021/11/27 01:16:37;;;;;;;;;;;;;;;1.89;91.35;95769.19;1756425;81;21538;-56
2021/11/27 01:19:04;;;;;;;18.15;11.00;;;;;;;1.84;90.93;95766.00;1753622;80;20138;-56
2021/11/27 01:21:33;;;;;;;17.98;8.18;;;;;;;1.81;91.05;95764.44;1753963;81;21052;-56
2021/11/27 01:24:00;;;;;;;16.55;9.70;;;;;;;1.78;90.61;95771.11;1753816;80;21083;-56
2021/11/27 01:26:26;;;;;;;19.07;9.98;;;;;;;1.74;90.75;95766.08;1754020;81;21064;-56
2021/11/27 01:28:52;;;;;;;12.68;6.97;;;;;;;1.74;90.87;95767.95;1753619;80;21784;-56
2021/11/27 01:31:18;;;;;;;12.45;6.20;;;;;;;1.74;90.85;95770.08;1753972;80;20932;-56
2021/11/27 01:33:44;;;;;;;10.95;7.08;;;;;;;1.73;90.82;95768.49;1753908;80;21008;-56
2021/11/27 01:36:10;;;;;;;10.03;5.45;;;;;;;1.72;90.82;95768.77;1750840;81;20874;-56
2021/11/27 01:38:36;;;;;;;13.75;6.75;;;;;;;1.73;90.95;95764.48;1766135;79;21513;-56
2021/11/27 01:41:02;;;;;;;10.05;5.53;;;;;;;1.75;90.95;95767.67;1748344;82;22354;-56
2021/11/27 01:43:29;;;;;;;9.25;5.67;;;;;;;1.76;90.95;95762.59;1764242;79;21536;-56
2021/11/27 01:45:55;;;;;;;10.65;5.22;;;;;;;1.81;91.09;95765.77;1763997;81;21516;-56
2021/11/27 01:48:22;;;;;;;11.12;6.28;;;;;;;1.81;90.99;95763.89;1763985;79;21481;-56
2021/11/27 01:50:55;;;;;;;11.70;6.15;;;;;;;1.80;90.89;95766.31;1763960;80;21464;-56
2021/11/27 01:53:22;;;;;;;16.40;11.68;;;;;;;1.79;90.77;95768.69;1766959;81;22302;-56
2021/11/27 01:55:52;;;;;;;16.17;7.20;;;;;;;1.79;90.79;95768.69;1785301;80;21021;-56
2021/11/27 01:58:17;;;;;;;9.45;6.35;;;;;;;1.77;90.93;95757.50;1785723;80;21021;-56
2021/11/27 02:00:46;;;;;;;8.95;5.50;;;;;;;1.80;90.92;95767.64;1785564;80;20862;-56
2021/11/27 02:03:12;;;;;;;12.95;5.95;;;;;;;1.83;90.81;95765.74;1786090;80;21428;-56
2021/11/27 02:05:38;;;;;;;11.28;6.72;;;;;;;1.86;90.82;95767.05;1761068;80;21566;-56
2021/11/27 02:08:04;;;;;;;11.93;5.97;;;;;;;1.84;90.78;95761.99;1753779;80;20952;-56
2021/11/27 02:10:30;;;;;;;12.58;6.85;;;;;;;1.82;90.82;95750.00;1753907;80;20905;-56
2021/11/27 02:12:56;;;;;;;8.58;5.10;;;;;;;1.77;90.81;95760.17;1753362;80;21033;-56
2021/11/27 02:15:23;;;;;;;10.70;4.80;;;;;;;1.81;90.76;95759.09;1753995;80;21448;-56
2021/11/27 02:17:49;;;;;;;9.70;4.87;;;;;;;1.79;90.28;95761.22;1753917;80;22390;-56
2021/11/27 02:20:15;;;;;;;8.78;4.80;;;;;;;1.82;90.58;95768.16;1753745;81;21469;-56
2021/11/27 02:22:41;;;;;;;9.25;5.08;;;;;;;1.85;90.45;95761.45;1754186;80;21478;-56
2021/11/27 02:25:11;;;;;;;8.40;5.03;;;;;;;1.86;90.45;95757.70;1753975;80;20997;-56
2021/11/27 02:27:37;;;;;;;11.65;6.45;;;;;;;1.87;90.26;95739.27;1753947;80;20989;-56
2021/11/27 02:30:05;;;;;;;9.48;5.33;;;;;;;1.84;89.73;95739.29;1753940;80;21443;-56
2021/11/27 02:32:31;;;;;;;11.60;6.15;;;;;;;1.77;89.75;95743.35;1753916;80;21005;-56
2021/11/27 02:34:57;;;;;;;10.10;5.17;;;;;;;1.77;89.22;95743.35;1753845;80;20882;-56
2021/11/27 02:37:23;;;;;;;9.00;5.45;;;;;;;1.67;89.38;95755.70;1735926;81;20880;-56
2021/11/27 02:39:49;;;;;;;11.57;6.90;;;;;;;1.67;89.66;95763.72;1774848;78;20945;-56
2021/11/27 02:42:15;;;;;;;13.83;9.28;;;;;;;1.68;89.59;95758.63;1749088;80;21534;-56
2021/11/27 02:44:41;;;;;;;11.43;6.42;;;;;;;1.67;89.21;95765.59;1781012;80;21001;-55
2021/11/27 02:47:08;;;;;;;9.23;5.42;;;;;;;1.68;89.68;95763.97;1748784;80;21327;-55
2021/11/27 02:49:34;;;;;;;12.13;5.83;;;;;;;1.74;89.92;95767.95;1764894;80;21093;-55
2021/11/27 02:52:00;;;;;;;9.03;4.95;;;;;;;1.78;90.00;95775.66;1765404;81;21008;-56
2021/11/27 02:54:26;;;;;;;11.12;6.50;;;;;;;1.80;89.90;95786.34;1765947;81;21153;-56
2021/11/27 02:56:53;;;;;;;7.97;5.65;;;;;;;1.80;89.72;95798.35;1763839;81;20974;-56
2021/11/27 02:59:22;;;;;;;10.82;6.05;;;;;;;1.77;89.56;95797.55;1763588;79;33716;-56
2021/11/27 03:01:53;;;;;;;8.70;5.37;;;;;;;1.75;89.17;95801.59;1764483;80;21030;-56
2021/11/27 03:04:19;;;;;;;9.58;5.97;;;;;;;1.74;89.11;95808.80;1766241;79;21472;-56
2021/11/27 03:06:45;;;;;;;9.90;6.15;;;;;;;1.70;88.94;95811.20;1769365;81;21743;-56
2021/11/27 03:09:15;;;;;;;132.72;54.63;;;;;;;1.73;89.00;95815.76;1769174;79;20955;-56
2021/11/27 03:11:41;;;;;;;44.20;24.82;;;;;;;1.71;89.07;95826.72;1769154;79;20990;-56
2021/11/27 03:14:07;;;;;;;25.23;12.65;;;;;;;1.74;89.14;95834.70;1769443;79;20843;-56
2021/11/27 03:16:33;;;;;;;13.88;7.22;;;;;;;1.75;88.89;95841.10;1769029;80;20954;-56
2021/11/27 03:19:00;;;;;;;10.75;5.85;;;;;;;1.79;88.57;95844.80;1769160;81;22473;-56
2021/11/27 03:21:26;;;;;;;11.25;6.35;;;;;;;1.82;88.66;95844.27;1769049;80;21115;-56
2021/11/27 03:23:52;;;;;;;11.18;6.62;;;;;;;1.82;88.27;95842.94;1767885;81;21579;-56
2021/11/27 03:26:18;;;;;;;12.93;7.22;;;;;;;1.80;87.96;95852.30;1763887;81;20945;-56
2021/11/27 03:28:45;;;;;;;15.53;8.33;;;;;;;1.80;88.03;95849.09;1765250;79;20971;-56
2021/11/27 03:31:11;;;;;;;15.32;9.90;;;;;;;1.81;88.08;95851.23;1765710;80;21439;-56
2021/11/27 03:33:37;;;;;;;16.50;8.70;;;;;;;1.79;87.87;95852.02;1764014;79;21138;-56
2021/11/27 03:36:04;;;;;;;21.10;10.53;;;;;;;1.78;88.20;95862.44;1762416;80;20990;-56
2021/11/27 03:38:30;;;;;;;22.17;11.28;;;;;;;1.78;88.31;95867.24;1739554;80;21048;-56
2021/11/27 03:40:57;;;;;;;25.95;13.15;;;;;;;1.78;88.16;95865.91;1776435;80;20997;-56
2021/11/27 03:43:22;;;;;;;32.25;15.38;;;;;;;1.75;87.68;95865.67;1765333;80;21539;-56
2021/11/27 03:45:48;;;;;;;19.82;10.00;;;;;;;1.74;88.19;95867.55;1763950;81;21023;-56
2021/11/27 03:48:17;;;;;;;16.30;9.70;;;;;;;1.73;88.02;95870.50;1764194;79;20883;-56
2021/11/27 03:50:49;;;;;;;16.05;9.18;;;;;;;1.73;88.13;95873.16;1764264;81;21526;-56
2021/11/27 03:53:19;;;;;;;14.93;7.72;;;;;;;1.73;88.11;95877.97;1781370;80;21043;-56
2021/11/27 03:55:45;;;;;;;14.03;7.83;;;;;;;1.73;88.00;95871.83;1769203;80;21163;-56
2021/11/27 03:58:11;;;;;;;13.68;7.78;;;;;;;1.69;88.08;95871.02;1769331;81;20978;-56
2021/11/27 04:00:38;;;;;;;13.30;7.67;;;;;;;1.70;87.92;95879.30;1785422;80;20986;-56
2021/11/27 04:03:06;;;;;;;13.53;7.35;;;;;;;1.66;87.92;95876.92;1785612;80;21463;-56
2021/11/27 04:05:33;;;;;;;12.15;7.83;;;;;;;1.69;87.94;95872.90;1768230;80;21051;-56
2021/11/27 04:07:59;;;;;;;13.78;8.90;;;;;;;1.69;88.00;95873.70;1785801;80;21565;-56
2021/11/27 04:10:26;;;;;;;15.90;8.30;;;;;;;1.71;88.19;95877.45;1756727;80;20986;-56
2021/11/27 04:12:51;;;;;;;15.25;8.40;;;;;;;1.71;88.09;95873.45;1753965;80;20997;-56
2021/11/27 04:15:18;;;;;;;14.83;8.30;;;;;;;1.74;88.28;95876.09;1754193;81;20893;-56
2021/11/27 04:17:44;;;;;;;19.98;10.20;;;;;;;1.75;88.40;95876.35;1753862;80;21020;-56
2021/11/27 04:20:11;;;;;;;14.83;8.28;;;;;;;1.78;88.50;95884.59;1753912;80;22360;-56
2021/11/27 04:22:37;;;;;;;14.03;8.78;;;;;;;1.82;88.61;95886.20;1753842;80;21149;-56
2021/11/27 04:25:04;;;;;;;17.90;11.48;;;;;;;1.86;88.25;95887.23;1753978;80;21076;-56
2021/11/27 04:27:30;;;;;;;14.80;8.50;;;;;;;1.82;88.32;95891.55;1753959;80;21028;-56
2021/11/27 04:29:55;;;;;;;21.25;10.88;;;;;;;1.84;88.27;95888.84;1754052;81;20870;-56
2021/11/27 04:32:21;;;;;;;20.85;14.28;;;;;;;1.85;88.42;95885.09;1754120;81;21469;-56
2021/11/27 04:34:47;;;;;;;17.12;11.75;;;;;;;1.85;88.25;95884.30;1753851;81;20969;-57
2021/11/27 04:37:15;;;;;;;20.68;12.70;;;;;;;1.85;88.28;95879.76;1751701;81;20854;-56
2021/11/27 04:39:41;;;;;;;14.73;9.23;;;;;;;1.84;88.21;95881.38;1753886;81;21025;-56
2021/11/27 04:42:07;;;;;;;17.92;10.68;;;;;;;1.79;87.97;95878.18;1753577;80;21075;-56
2021/11/27 04:44:34;;;;;;;19.60;10.58;;;;;;;1.79;87.74;95879.52;1754245;80;21515;-56
2021/11/27 04:47:00;;;;;;;16.15;9.58;;;;;;;1.72;87.97;95884.39;1753826;80;21466;-56
2021/11/27 04:49:26;;;;;;;24.20;11.85;;;;;;;1.71;87.92;95896.14;1753785;81;20889;-56
2021/11/27 04:51:52;;;;;;;19.70;11.28;;;;;;;1.70;88.09;95899.86;1752943;80;21047;-55
2021/11/27 04:54:18;;;;;;;32.95;15.50;;;;;;;1.72;87.97;95905.75;1764902;80;21032;-56
2021/11/27 04:56:44;;;;;;;42.03;18.77;;;;;;;1.70;88.12;95907.87;1785604;80;22254;-56
2021/11/27 04:59:10;;;;;;;50.60;21.23;;;;;;;1.69;88.11;95912.41;1785523;80;21015;-56
2021/11/27 05:01:36;;;;;;;70.87;24.27;;;;;;;1.69;88.08;95908.95;1785739;80;20889;-55
2021/11/27 05:04:03;;;;;;;56.75;19.80;;;;;;;1.67;88.08;95914.56;1785424;80;21122;-56
2021/11/27 05:06:30;;;;;;;37.48;15.58;;;;;;;1.68;88.09;95906.02;1760582;80;21001;-56
2021/11/27 05:08:57;;;;;;;24.20;12.35;;;;;;;1.68;88.02;95908.69;1753745;80;21460;-55
2021/11/27 05:11:23;;;;;;;62.58;22.55;;;;;;;1.71;88.27;95914.83;1753572;81;21000;-56
2021/11/27 05:13:49;;;;;;;30.48;12.73;;;;;;;1.74;88.26;95912.94;1753610;80;21032;-56
2021/11/27 05:16:15;;;;;;;69.07;23.38;;;;;;;1.76;87.94;95912.12;1753843;80;21002;-56
2021/11/27 05:18:43;;;;;;;20.85;11.80;;;;;;;1.78;88.06;95917.98;1753809;80;21048;-56
2021/11/27 05:21:10;;;;;;;25.10;15.60;;;;;;;1.79;87.87;95902.22;1754250;81;21583;-56
2021/11/27 05:23:36;;;;;;;25.97;12.45;;;;;;;1.79;87.29;95907.55;1753802;80;20981;-56
2021/11/27 05:26:02;;;;;;;23.12;12.88;;;;;;;1.71;87.69;95904.16;1753922;81;21072;-56
2021/11/27 05:28:28;;;;;;;242.50;60.40;;;;;;;1.70;87.75;95902.53;1753969;80;20858;-56
2021/11/27 05:30:54;;;;;;;369.23;92.75;;;;;;;1.69;87.88;95900.94;1753848;80;21612;-56
2021/11/27 05:33:35;;;;;;;214.88;59.85;;;;;;;1.69;87.85;95911.62;1753683;80;22196;-56
2021/11/27 05:35:50;;;;;;;386.80;97.45;;;;;;;1.69;88.09;95915.63;1766593;80;20989;-56
2021/11/27 05:38:16;;;;;;;189.07;55.78;;;;;;;1.66;88.01;95911.64;1730049;81;21001;-56
2021/11/27 05:40:42;;;;;;;79.12;28.60;;;;;;;1.64;88.12;95917.00;1753792;81;20854;-56
2021/11/27 05:43:07;;;;;;;95.42;32.17;;;;;;;1.63;88.12;95920.74;1754005;80;20893;-56
2021/11/27 05:45:33;;;;;;;164.13;52.62;;;;;;;1.63;88.16;95924.75;1784562;79;21180;-56
2021/11/27 05:48:01;;;;;;;272.17;77.08;;;;;;;1.63;88.29;95931.42;1785941;80;20920;-56
2021/11/27 05:50:27;;;;;;;266.12;75.37;;;;;;;1.63;88.45;95936.77;1785688;80;21037;-56
2021/11/27 05:52:53;;;;;;;77.85;27.45;;;;;;;1.61;88.38;95938.34;1739890;81;21031;-56
2021/11/27 05:55:21;;;;;;;39.00;20.08;;;;;;;1.61;88.05;95950.36;1751677;82;21075;-56
2021/11/27 05:57:47;;;;;;;32.90;18.95;;;;;;;1.57;88.50;95942.64;1751492;80;22356;-56
2021/11/27 06:00:15;;;;;;;30.30;15.55;;;;;;;1.59;88.45;95948.50;1751509;80;21056;-56
2021/11/27 06:02:41;;;;;;;18.02;12.03;;;;;;;1.60;88.41;95942.62;1751502;80;21087;-56
2021/11/27 06:05:08;;;;;;;23.30;13.13;;;;;;;1.59;88.63;95936.48;1759257;80;21069;-56
2021/11/27 06:07:35;;;;;;;32.58;16.42;;;;;;;1.62;88.66;95935.14;1785735;80;21086;-56
2021/11/27 06:10:01;;;;;;;74.53;26.23;;;;;;;1.65;88.73;95935.94;1785952;80;21106;-56
2021/11/27 06:12:27;;;;;;;66.70;22.00;;;;;;;1.68;88.71;95946.86;1785870;80;20985;-55
2021/11/27 06:14:53;;;;;;;107.70;38.55;;;;;;;1.69;88.75;95946.33;1764040;80;20888;-56
2021/11/27 06:17:19;;;;;;;89.28;33.75;;;;;;;1.65;88.63;95935.94;1754056;80;20869;-56
2021/11/27 06:19:45;;;;;;;119.67;40.45;;;;;;;1.59;88.57;95935.69;1774228;80;21723;-56
2021/11/27 06:22:11;;;;;;;109.97;40.00;;;;;;;1.52;88.60;95937.31;1785674;80;22522;-56
2021/11/27 06:24:37;;;;;;;116.55;43.90;;;;;;;1.48;88.87;95934.94;1785904;80;20936;-56
2021/11/27 06:27:05;;;;;;;113.22;44.05;;;;;;;1.46;88.83;95944.30;1785899;80;20956;-56
2021/11/27 06:29:31;;;;;;;117.40;45.83;;;;;;;1.41;89.05;95941.09;1785769;80;21558;-56
2021/11/27 06:31:58;;;;;;;110.03;45.92;;;;;;;1.38;88.75;95948.31;1785891;80;21021;-55
2021/11/27 06:34:24;;;;;;;80.12;36.93;;;;;;;1.34;88.92;95949.38;1770295;80;21446;-56
2021/11/27 06:36:50;;;;;;;44.33;21.68;;;;;;;1.34;88.82;95955.25;1742548;80;20875;-56
2021/11/27 06:39:16;;;;;;;33.80;18.45;;;;;;;1.33;88.83;95946.98;1747546;81;20861;-55
2021/11/27 06:41:42;;;;;;;20.55;12.43;;;;;;;1.34;88.87;95956.59;1754218;81;21005;-55
2021/11/27 06:44:08;;;;;;;22.17;11.88;;;;;;;1.35;88.85;95957.64;1753945;80;21662;-55
2021/11/27 06:46:34;;;;;;;27.10;14.87;;;;;;;1.36;89.06;95955.23;1754012;81;21476;-55
2021/11/27 06:48:59;;;;;;;202.97;74.80;;;;;;;1.40;89.00;95961.64;1753914;80;20945;-56
2021/11/27 06:51:25;;;;;;;188.47;76.28;;;;;;;1.43;89.08;95961.63;1756347;80;20964;-56
2021/11/27 06:53:51;;;;;;;127.25;51.53;;;;;;;1.39;89.69;95965.92;1786726;79;20863;-55
2021/11/27 06:56:17;;;;;;;81.25;38.92;;;;;;;1.33;89.64;95973.13;1785945;80;21020;-56
2021/11/27 06:58:43;;;;;;;112.70;52.45;;;;;;;1.30;89.12;95984.89;1785762;80;22336;-56
2021/11/27 07:01:09;;;;;;;84.50;43.80;;;;;;;1.13;89.55;95976.65;1785842;80;20956;-56
2021/11/27 07:03:35;;;;;;;72.12;36.03;;;;;;;1.20;90.12;95989.72;1785830;80;21173;-56
2021/11/27 07:06:03;;;;;;;69.35;35.43;;;;;;;1.23;90.32;95995.84;1766312;80;21090;-56
2021/11/27 07:08:29;;;;;;;51.53;30.20;;;;;;;1.31;89.83;95988.62;1753657;80;21491;-56
2021/11/27 07:10:55;;;;;;;77.17;35.65;;;;;;;1.31;89.80;95993.95;1754129;81;21569;-56
2021/11/27 07:13:21;;;;;;;59.85;30.80;;;;;;;1.25;89.73;95996.90;1754148;80;20941;-56
2021/11/27 07:15:47;;;;;;;52.45;28.12;;;;;;;1.20;89.93;95995.56;1754125;81;21086;-57
2021/11/27 07:18:14;;;;;;;43.58;23.27;;;;;;;1.13;91.21;95994.52;1753930;80;21088;-56
2021/11/27 07:20:40;;;;;;;32.03;15.90;;;;;;;1.11;90.93;95996.64;1753925;81;20990;-57
2021/11/27 07:23:06;;;;;;;28.42;15.70;;;;;;;1.07;91.66;96003.59;1753799;80;22364;-56
2021/11/27 07:25:32;;;;;;;27.90;17.07;;;;;;;1.08;91.00;96003.31;1753869;80;21090;-57
2021/11/27 07:27:58;;;;;;;31.90;19.27;;;;;;;1.15;91.19;96000.92;1753998;80;21405;-57
2021/11/27 07:30:25;;;;;;;78.75;40.45;;;;;;;1.20;91.19;95988.89;1753989;81;20936;-57
2021/11/27 07:32:51;;;;;;;37.80;23.22;;;;;;;1.25;91.29;95996.36;1754032;80;21020;-57
2021/11/27 07:35:17;;;;;;;30.75;18.27;;;;;;;1.37;91.32;95995.56;1754119;80;21605;-57
2021/11/27 07:37:42;;;;;;;44.18;25.27;;;;;;;1.44;91.70;95995.79;1735533;81;20896;-57
2021/11/27 07:40:09;;;;;;;25.68;16.05;;;;;;;1.51;91.59;95999.78;1754073;81;20897;-57
2021/11/27 07:42:35;;;;;;;49.45;37.60;;;;;;;1.54;92.00;96003.27;1753867;80;21527;-57
2021/11/27 07:45:01;;;;;;;29.92;21.27;;;;;;;1.62;91.54;96014.72;1754106;80;20878;-56
2021/11/27 07:47:27;;;;;;;24.98;15.88;;;;;;;1.63;91.96;96002.97;1753993;80;21029;-57
2021/11/27 07:49:53;;;;;;;21.48;12.30;;;;;;;1.72;91.22;96008.55;1775798;80;20878;-57
2021/11/27 07:52:21;;;;;;;27.13;16.97;;;;;;;1.73;90.81;96002.67;1771241;80;20929;-56
2021/11/27 07:54:46;;;;;;;37.83;26.60;;;;;;;1.76;90.82;96000.78;1758495;80;20982;-57
2021/11/27 07:57:12;;;;;;;33.58;19.80;;;;;;;1.79;90.76;96007.70;1770140;80;21149;-57
2021/11/27 07:59:38;;;;;;;37.00;21.73;;;;;;;1.88;91.15;96005.27;1755184;80;21584;-57
2021/11/27 08:02:04;;;;;;;28.50;15.88;;;;;;;1.96;91.38;96005.50;1756882;80;20952;-57
2021/11/27 08:04:30;;;;;;;51.83;44.75;;;;;;;2.00;91.97;96012.45;1754057;81;21538;-57
2021/11/27 08:06:56;;;;;;;33.60;21.23;;;;;;;2.09;91.17;96010.01;1769121;80;20978;-56
2021/11/27 08:09:22;;;;;;;29.65;19.95;;;;;;;2.16;90.94;96017.99;1772966;80;21083;-57
2021/11/27 08:11:48;;;;;;;43.20;25.05;;;;;;;2.23;90.79;96025.18;1753940;81;21481;-57
2021/11/27 08:14:14;;;;;;;33.38;21.33;;;;;;;2.22;90.53;96024.92;1759844;80;21102;-57
2021/11/27 08:16:40;;;;;;;46.42;25.15;;;;;;;2.26;90.38;96026.50;1757867;80;21463;-57
2021/11/27 08:19:06;;;;;;;51.88;29.55;;;;;;;2.25;90.33;96023.03;1753905;80;21458;-57
2021/11/27 08:21:33;;;;;;;53.33;27.15;;;;;;;2.29;90.46;96033.16;1780082;80;20953;-57
2021/11/27 08:23:59;;;;;;;48.02;28.12;;;;;;;2.34;90.47;96043.30;1785166;80;22509;-57
2021/11/27 08:26:24;;;;;;;41.88;25.37;;;;;;;2.39;90.49;96047.80;1767968;80;21035;-57
2021/11/27 08:28:50;;;;;;;32.35;20.00;;;;;;;2.44;90.44;96055.27;1770697;80;20940;-56
2021/11/27 08:31:16;;;;;;;35.75;21.62;;;;;;;2.48;90.30;96042.17;1766085;80;21476;-56
2021/11/27 08:33:42;;;;;;;40.83;21.45;;;;;;;2.57;90.01;96034.36;1759478;80;20977;-57
2021/11/27 08:36:09;;;;;;;68.35;33.25;;;;;;;2.64;89.86;96032.95;1768726;80;21569;-57
2021/11/27 08:38:35;;;;;;;88.17;42.58;;;;;;;2.68;89.55;96033.22;1763628;80;21291;-57
2021/11/27 08:41:01;;;;;;;71.75;36.28;;;;;;;2.72;89.71;96038.26;1771599;80;20970;-57
2021/11/27 08:43:27;;;;;;;60.08;33.73;;;;;;;2.84;89.95;96040.07;1766813;80;20993;-57
2021/11/27 08:45:53;;;;;;;48.65;26.17;;;;;;;2.99;89.94;96044.48;1745884;80;21000;-57
2021/11/27 08:48:19;;;;;;;47.00;26.75;;;;;;;3.06;89.16;96054.34;1753764;80;21458;-57
2021/11/27 08:50:45;;;;;;;42.40;24.05;;;;;;;3.11;89.10;96055.66;1754055;81;20861;-57
2021/11/27 08:53:11;;;;;;;39.18;21.50;;;;;;;3.15;88.82;96061.23;1779821;80;21123;-57
2021/11/27 08:55:37;;;;;;;31.85;20.48;;;;;;;3.04;87.55;96067.21;1786712;79;21553;-56
2021/11/27 08:58:03;;;;;;;31.45;22.32;;;;;;;3.24;87.92;96074.28;1785516;80;20964;-56
2021/11/27 09:00:29;;;;;;;44.75;24.55;;;;;;;3.31;86.62;96080.12;1773658;80;21433;-57
2021/11/27 09:02:57;;;;;;;26.45;16.73;;;;;;;3.39;86.40;96072.28;1787338;79;20870;-56
2021/11/27 09:05:23;;;;;;;38.10;22.05;;;;;;;3.51;85.96;96083.19;1764746;80;21492;-57
2021/11/27 09:07:49;;;;;;;33.98;20.88;;;;;;;3.60;84.91;96093.55;1766712;81;21017;-57
2021/11/27 09:10:15;;;;;;;24.55;14.65;;;;;;;3.66;86.07;96090.52;1777302;80;20970;-57
2021/11/27 09:12:41;;;;;;;19.15;10.78;;;;;;;3.71;86.11;96088.89;1762095;80;22327;-57
2021/11/27 09:15:09;;;;;;;19.60;11.70;;;;;;;3.73;85.45;96073.33;1760765;80;21539;-57
2021/11/27 09:17:35;;;;;;;19.95;12.30;;;;;;;3.76;86.02;96067.39;1756043;80;21025;-57
2021/11/27 09:20:01;;;;;;;14.35;9.65;;;;;;;3.80;85.89;96063.88;1756460;80;21013;-57
2021/11/27 09:22:27;;;;;;;17.15;9.68;;;;;;;3.88;84.84;96069.16;1761528;81;20879;-57
2021/11/27 09:24:53;;;;;;;19.02;10.08;;;;;;;3.78;83.65;96072.75;1766454;80;22305;-57
2021/11/27 09:27:19;;;;;;;15.05;10.23;;;;;;;3.83;84.08;96077.23;1745739;81;22586;-57
2021/11/27 09:29:45;;;;;;;13.03;8.48;;;;;;;3.85;83.72;96072.41;1740189;81;20953;-57
2021/11/27 09:32:11;;;;;;;17.20;10.03;;;;;;;3.89;83.99;96073.43;1769039;81;21017;-57
2021/11/27 09:34:37;;;;;;;20.20;14.20;;;;;;;3.98;84.60;96077.63;1755834;80;21005;-57
2021/11/27 09:37:04;;;;;;;18.37;10.15;;;;;;;4.06;84.15;96082.37;1743382;82;21560;-57
2021/11/27 09:39:32;;;;;;;22.32;11.18;;;;;;;4.10;84.61;96076.68;1767924;81;21001;-57
2021/11/27 09:41:58;;;;;;;19.62;12.03;;;;;;;4.12;83.84;96076.67;1768469;80;21041;-57
2021/11/27 09:44:24;;;;;;;18.87;12.65;;;;;;;4.10;82.21;96084.20;1767510;81;20970;-57
2021/11/27 09:46:50;;;;;;;19.10;9.80;;;;;;;4.02;81.40;96080.81;1744833;82;20890;-57
2021/11/27 09:49:22;;;;;;;19.20;11.55;;;;;;;4.02;81.40;96080.81;1745087;80;21391;-57
2021/11/27 09:51:52;;;;;;;16.52;9.03;;;;;;;4.03;82.04;96086.42;1759807;81;21028;-57
2021/11/27 09:54:19;;;;;;;12.68;8.78;;;;;;;4.12;82.08;96082.03;1755384;80;20988;-57
2021/11/27 09:56:47;;;;;;;41.70;16.77;;;;;;;4.30;82.01;96089.08;1756251;81;21106;-56
2021/11/27 09:59:13;;;;;;;25.52;13.25;;;;;;;4.40;82.47;96095.66;1745740;80;21523;-57
2021/11/27 10:01:40;;;;;;;30.60;14.83;;;;;;;4.54;81.75;96096.56;1755666;81;21493;-57
2021/11/27 10:04:08;;;;;;;18.12;10.05;;;;;;;4.61;81.69;96099.67;1768962;80;21027;-57
2021/11/27 10:06:36;;;;;;;23.20;13.30;;;;;;;4.71;81.30;96104.92;1748050;80;21020;-57
2021/11/27 10:09:10;;;;;;;50.35;20.52;;;;;;;4.77;80.21;96104.30;1745846;80;21029;-57
2021/11/27 10:11:36;;;;;;;58.63;23.85;;;;;;;4.69;77.33;96097.69;1745680;82;21021;-57
2021/11/27 10:14:05;;;;;;;6.67;3.42;;;;;;;4.80;79.05;96099.17;1752186;80;21544;-57
2021/11/27 10:16:33;;;;;;;19.80;11.73;;;;;;;4.95;74.93;96095.45;1746134;81;21076;-57
2021/11/27 10:19:08;;;;;;;19.90;11.68;;;;;;;4.74;77.68;96090.92;1725061;82;21020;-57
2021/11/27 10:21:35;;;;;;;20.77;13.20;;;;;;;4.80;78.00;96098.37;1742663;80;21044;-57
2021/11/27 10:24:18;;;;;;;17.57;11.97;;;;;;;4.89;78.44;96101.20;1745526;80;21562;-57
2021/11/27 10:26:45;;;;;;;12.82;8.88;;;;;;;4.98;76.91;96103.50;1745263;82;21336;-56
2021/11/27 10:29:26;;;;;;;13.98;8.25;;;;;;;5.03;75.44;96096.70;1737560;80;21056;-56
2021/11/27 10:32:09;;;;;;;126.40;56.70;;;;;;;5.10;78.65;96100.61;1759137;80;21563;-56
2021/11/27 10:34:35;;;;;;;34.88;18.73;;;;;;;5.09;78.60;96099.02;1762736;80;20991;-56
2021/11/27 10:37:01;;;;;;;28.55;17.23;;;;;;;5.02;77.15;96113.89;1758904;80;21057;-55
2021/11/27 10:39:27;;;;;;;21.77;10.13;;;;;;;4.86;75.64;96116.53;1745789;82;21210;-56
2021/11/27 10:42:03;;;;;;;18.27;8.53;;;;;;;4.79;76.06;96104.83;1746117;82;20999;-55
2021/11/27 10:44:34;;;;;;;21.15;9.83;;;;;;;4.81;75.75;96106.13;1745548;82;21006;-56
2021/11/27 10:47:16;;;;;;;18.40;9.95;;;;;;;4.82;76.51;96097.53;1745785;80;20978;-56
2021/11/27 10:49:43;;;;;;;16.07;11.63;;;;;;;4.92;77.33;96101.96;1768667;80;21037;-56
2021/11/27 10:52:13;;;;;;;16.02;9.08;;;;;;;4.97;77.13;96096.53;1759154;81;22350;-56
2021/11/27 10:54:56;;;;;;;15.20;8.75;;;;;;;5.09;76.21;96092.31;1758139;80;21033;-56
2021/11/27 10:57:32;;;;;;;11.43;7.78;;;;;;;5.08;75.47;96093.95;1762848;80;21108;-58
2021/11/27 11:00:33;;;;;;;14.30;7.37;;;;;;;5.15;73.83;96093.05;1757890;80;21048;-56
2021/11/27 11:03:00;;;;;;;14.50;7.90;;;;;;;5.07;73.97;96082.41;1766845;81;21025;-56
2021/11/27 11:05:37;;;;;;;18.48;10.08;;;;;;;5.05;75.26;96084.59;1748280;80;21536;-56
2021/11/27 11:08:07;;;;;;;16.42;10.70;;;;;;;5.03;74.18;96096.14;1745570;80;21491;-56
2021/11/27 11:10:38;;;;;;;47.43;25.40;;;;;;;4.95;73.08;96098.69;1745848;80;21017;-56
2021/11/27 11:13:09;;;;;;;25.90;14.68;;;;;;;4.90;73.44;96094.20;1758684;81;21489;-56
2021/11/27 11:15:42;;;;;;;15.68;11.03;;;;;;;4.96;74.16;96097.08;1757881;80;20985;-56
2021/11/27 11:18:25;;;;;;;16.10;9.20;;;;;;;5.10;74.00;96088.53;1757427;81;21619;-56
2021/11/27 11:20:54;;;;;;;47.62;24.35;;;;;;;5.22;74.07;96084.63;1746174;81;20990;-56
2021/11/27 11:23:33;;;;;;;21.02;11.12;;;;;;;5.26;74.83;96085.08;1744934;80;21330;-56
2021/11/27 11:26:16;;;;;;;18.37;10.43;;;;;;;5.35;75.41;96074.47;1745611;82;21084;-57
2021/11/27 11:28:49;;;;;;;18.45;10.82;;;;;;;5.40;74.75;96074.39;1747063;80;22462;-56